Time;durP1;ratioP1;P1;durP2;ratioP2;P2;SDS_P1;SDS_P2;PMS_P1;PMS_P2;Temp;Humidity;BMP_temperature;BMP_pressure;BME280_temperature;BME280_humidity;BME280_pressure;Samples;Min_cycle;Max_cycle;Signal;HPM_P1;HPM_P2
2023/10/15 00:01:21;;;;;;;7.43;1.67;;;;;;;7.82;83.70;100747.41;4971142;28;20221;-82
2023/10/15 00:03:48;;;;;;;8.70;2.07;;;;;;;7.80;83.10;100746.63;4977554;28;20208;-82
2023/10/15 00:06:14;;;;;;;8.60;1.83;;;;;;;7.80;82.92;100740.47;4967485;28;20216;-82
2023/10/15 00:08:41;;;;;;;6.20;1.43;;;;;;;7.79;83.30;100747.56;4965939;28;20211;-82
2023/10/15 00:11:13;;;;;;;6.43;1.80;;;;;;;7.78;83.43;100747.63;4968530;28;20224;-82
2023/10/15 00:13:39;;;;;;;10.53;2.03;;;;;;;7.78;82.78;100748.47;4971124;28;20232;-82
2023/10/15 00:16:07;;;;;;;5.93;1.80;;;;;;;7.79;83.10;100749.34;4966028;28;20708;-82
2023/10/15 00:18:34;;;;;;;5.67;1.73;;;;;;;7.76;83.49;100742.41;4971739;28;20211;-82
2023/10/15 00:21:11;;;;;;;8.90;1.57;;;;;;;7.72;83.63;100745.28;4970014;28;20251;-82
2023/10/15 00:23:38;;;;;;;8.80;2.13;;;;;;;7.74;84.14;100751.34;4971356;28;20196;-82
2023/10/15 00:26:05;;;;;;;8.57;2.17;;;;;;;7.72;83.28;100748.78;4969085;28;20219;-82
2023/10/15 00:28:32;;;;;;;7.20;1.97;;;;;;;7.72;83.86;100756.72;4970836;28;20212;-82
2023/10/15 00:31:00;;;;;;;6.37;2.27;;;;;;;7.69;84.22;100750.75;4974745;28;20236;-83
2023/10/15 00:33:30;;;;;;;6.37;1.63;;;;;;;7.71;83.73;100759.47;4963710;28;20212;-82
2023/10/15 00:35:57;;;;;;;7.20;2.17;;;;;;;7.70;84.63;100752.47;4971026;28;20648;-82
2023/10/15 00:38:24;;;;;;;4.30;1.30;;;;;;;7.73;84.20;100757.59;4985706;28;20213;-82
2023/10/15 00:40:51;;;;;;;8.73;1.40;;;;;;;7.72;83.98;100753.22;4970309;28;20232;-82
2023/10/15 00:43:18;;;;;;;7.07;2.00;;;;;;;7.75;83.81;100753.94;4972372;28;20283;-82
2023/10/15 00:45:46;;;;;;;9.77;1.90;;;;;;;7.74;83.94;100748.69;4971977;28;20291;-82
2023/10/15 00:48:19;;;;;;;8.23;2.73;;;;;;;7.74;83.54;100748.69;4965854;28;20209;-82
2023/10/15 00:50:48;;;;;;;6.27;1.67;;;;;;;7.75;83.79;100747.78;4969425;28;20220;-81
2023/10/15 00:53:22;;;;;;;12.53;2.50;;;;;;;7.74;83.16;100743.41;4993074;28;20208;-81
2023/10/15 00:55:54;;;;;;;6.93;2.47;;;;;;;7.76;83.89;100742.41;4981972;28;20222;-82
2023/10/15 00:58:33;;;;;;;7.20;2.03;;;;;;;7.77;83.98;100738.81;4983776;28;20213;-82
2023/10/15 01:01:17;;;;;;;8.40;1.57;;;;;;;7.76;83.51;100741.53;4965588;28;20285;-82
2023/10/15 01:03:48;;;;;;;5.23;1.67;;;;;;;7.75;83.29;100738.03;4972469;28;20197;-82
2023/10/15 01:06:18;;;;;;;5.13;1.57;;;;;;;7.77;83.52;100738.81;4984767;28;20212;-82
2023/10/15 01:08:46;;;;;;;5.00;1.60;;;;;;;7.76;83.32;100733.59;4975151;28;20206;-81
2023/10/15 01:11:17;;;;;;;10.60;1.80;;;;;;;7.74;83.78;100735.44;4974720;28;20212;-81
2023/10/15 01:13:44;;;;;;;7.03;1.40;;;;;;;7.72;83.47;100734.66;4973836;28;20204;-82
2023/10/15 01:16:13;;;;;;;5.90;1.63;;;;;;;7.72;83.47;100738.19;4976936;28;20212;-81
2023/10/15 01:18:40;;;;;;;5.00;1.37;;;;;;;7.71;83.33;100725.84;4970087;28;20266;-82
2023/10/15 01:21:09;;;;;;;5.43;1.60;;;;;;;7.71;83.60;100730.28;4971360;28;20794;-82
2023/10/15 01:23:54;;;;;;;6.67;1.60;;;;;;;7.71;83.13;100723.19;4979195;28;20201;-83
2023/10/15 01:26:25;;;;;;;4.97;2.20;;;;;;;7.71;82.85;100712.59;4974524;28;20201;-81
2023/10/15 01:28:51;;;;;;;6.63;2.07;;;;;;;7.72;82.67;100716.09;5021551;28;20201;-82
2023/10/15 01:31:18;;;;;;;11.97;3.47;;;;;;;7.72;82.95;100708.16;4975714;28;20875;-82
2023/10/15 01:33:49;;;;;;;7.43;1.87;;;;;;;7.72;82.85;100714.31;4968336;28;20209;-82
2023/10/15 01:36:18;;;;;;;10.27;2.30;;;;;;;7.76;82.49;100712.38;4981302;28;20207;-82
2023/10/15 01:38:45;;;;;;;7.13;1.97;;;;;;;7.74;82.76;100712.44;4990658;28;20658;-82
2023/10/15 01:41:13;;;;;;;8.00;2.10;;;;;;;7.78;83.04;100719.31;4974792;28;20292;-83
2023/10/15 01:43:45;;;;;;;6.43;2.17;;;;;;;7.79;82.97;100706.91;4985103;28;20227;-82
2023/10/15 01:46:23;;;;;;;7.80;2.43;;;;;;;7.77;82.90;100714.09;4969497;28;20279;-82
2023/10/15 01:48:49;;;;;;;5.83;1.63;;;;;;;7.76;83.13;100715.88;4979217;28;20204;-82
2023/10/15 01:51:16;;;;;;;10.73;2.33;;;;;;;7.72;82.96;100718.75;4973288;28;20205;-82
2023/10/15 01:53:45;;;;;;;9.30;3.10;;;;;;;7.70;83.25;100720.66;4971466;28;20208;-83
2023/10/15 01:56:17;;;;;;;5.67;1.60;;;;;;;7.66;83.43;100710.19;4969491;28;20209;-82
2023/10/15 01:58:45;;;;;;;6.93;1.97;;;;;;;7.69;83.17;100709.19;4983241;28;20236;-82
2023/10/15 02:01:20;;;;;;;6.80;1.67;;;;;;;7.64;83.20;100713.84;4974083;28;20232;-83
2023/10/15 02:03:47;;;;;;;8.87;2.43;;;;;;;7.62;83.90;100715.72;4981447;28;20212;-81
2023/10/15 02:06:16;;;;;;;9.43;2.30;;;;;;;7.59;83.93;100719.38;4980144;28;20214;-81
2023/10/15 02:08:45;;;;;;;6.20;1.80;;;;;;;7.58;83.43;100720.31;4969606;28;20212;-81
2023/10/15 02:11:17;;;;;;;6.47;1.60;;;;;;;7.55;84.32;100717.81;4993250;28;20200;-83
2023/10/15 02:13:45;;;;;;;5.60;1.57;;;;;;;7.54;84.14;100718.75;5008051;28;20215;-82
2023/10/15 02:16:18;;;;;;;7.03;1.73;;;;;;;7.50;84.09;100713.69;4998068;28;20208;-82
2023/10/15 02:18:45;;;;;;;8.17;2.80;;;;;;;7.48;84.62;100724.38;4987730;28;20258;-82
2023/10/15 02:21:16;;;;;;;9.13;2.30;;;;;;;7.47;84.48;100722.66;4985673;28;20235;-81
2023/10/15 02:23:48;;;;;;;9.53;2.00;;;;;;;7.46;84.66;100710.34;4983684;28;20209;-82
2023/10/15 02:26:18;;;;;;;5.73;1.70;;;;;;;7.48;85.43;100721.72;4974183;28;20220;-82
2023/10/15 02:28:47;;;;;;;8.17;1.93;;;;;;;7.48;84.89;100713.78;4967689;28;20216;-81
2023/10/15 02:31:19;;;;;;;5.63;2.10;;;;;;;7.48;85.27;100715.56;4995206;28;20787;-82
2023/10/15 02:33:46;;;;;;;6.17;2.00;;;;;;;7.48;85.52;100715.56;4982794;28;20196;-82
2023/10/15 02:36:16;;;;;;;5.60;1.50;;;;;;;7.49;85.43;100712.84;4988796;28;20247;-82
2023/10/15 02:38:52;;;;;;;4.53;1.60;;;;;;;7.50;85.60;100714.56;4974018;28;20212;-82
2023/10/15 02:41:18;;;;;;;7.83;1.43;;;;;;;7.47;84.70;100716.50;4972583;28;20267;-82
2023/10/15 02:43:48;;;;;;;4.43;2.10;;;;;;;7.48;85.36;100711.13;4997408;28;20215;-82
2023/10/15 02:46:22;;;;;;;7.53;1.93;;;;;;;7.49;84.57;100706.69;4969468;28;20212;-82
2023/10/15 02:48:49;;;;;;;9.53;1.93;;;;;;;7.48;84.93;100710.25;4968232;28;20676;-82
2023/10/15 02:51:19;;;;;;;9.53;1.63;;;;;;;7.46;84.62;100715.63;4973551;28;20762;-82
2023/10/15 02:53:52;;;;;;;10.47;2.10;;;;;;;7.49;84.67;100714.63;4981849;28;20205;-82
2023/10/15 02:56:18;;;;;;;5.87;1.60;;;;;;;7.47;84.69;100717.34;4981060;28;20269;-82
2023/10/15 02:58:46;;;;;;;9.43;2.07;;;;;;;7.47;84.88;100717.34;4995596;28;20196;-82
2023/10/15 03:01:18;;;;;;;8.93;1.63;;;;;;;7.46;85.00;100718.28;4972942;28;20283;-82
2023/10/15 03:03:49;;;;;;;8.03;1.83;;;;;;;7.47;84.50;100725.31;4974848;28;20209;-82
2023/10/15 03:06:19;;;;;;;5.97;1.50;;;;;;;7.49;84.84;100722.59;4974743;28;20825;-82
2023/10/15 03:08:50;;;;;;;5.97;1.93;;;;;;;7.48;84.72;100716.41;5009365;28;20216;-83
2023/10/15 03:11:19;;;;;;;4.10;1.30;;;;;;;7.48;84.84;100719.06;4973649;28;20212;-83
2023/10/15 03:13:52;;;;;;;4.37;1.77;;;;;;;7.48;84.49;100716.41;4985327;28;21597;-83
2023/10/15 03:16:21;;;;;;;10.83;2.00;;;;;;;7.46;85.21;100720.94;5006702;28;20212;-82
2023/10/15 03:18:52;;;;;;;7.80;1.77;;;;;;;7.51;85.23;100715.41;4970810;28;20205;-81
2023/10/15 03:21:26;;;;;;;5.07;1.37;;;;;;;7.53;84.82;100719.69;4999463;28;20588;-82
2023/10/15 03:23:55;;;;;;;8.87;1.40;;;;;;;7.49;85.02;100718.13;4992474;28;20208;-82
2023/10/15 03:26:22;;;;;;;8.13;1.83;;;;;;;7.50;85.18;100726.94;4971738;28;20231;-82
2023/10/15 03:28:51;;;;;;;4.23;1.37;;;;;;;7.50;84.97;100725.16;4979422;28;20240;-82
2023/10/15 03:31:25;;;;;;;3.07;1.10;;;;;;;7.49;84.82;100726.09;4976358;28;20207;-84
2023/10/15 03:36:47;;;;;;;4.93;1.50;;;;;;;7.48;85.30;100718.22;4992367;28;20235;-82
2023/10/15 03:39:16;;;;;;;4.80;1.47;;;;;;;7.49;84.49;100726.09;4973662;28;20314;-83
2023/10/15 03:41:43;;;;;;;6.90;1.50;;;;;;;7.53;85.10;100722.34;4983957;28;20231;-83
2023/10/15 03:44:11;;;;;;;5.80;1.17;;;;;;;7.50;84.89;100725.16;4983273;28;20637;-83
2023/10/15 03:46:39;;;;;;;6.13;1.40;;;;;;;7.49;84.69;100726.09;4977567;28;20220;-82
2023/10/15 03:49:08;;;;;;;2.87;0.90;;;;;;;7.53;84.75;100738.22;4972689;28;20267;-83
2023/10/15 03:51:40;;;;;;;4.37;0.93;;;;;;;7.52;83.92;100730.38;4980023;28;20213;-83
2023/10/15 03:54:08;;;;;;;6.03;0.90;;;;;;;7.52;84.42;100723.28;4998223;28;20254;-83
2023/10/15 03:56:35;;;;;;;3.10;0.97;;;;;;;7.51;84.85;100726.88;4974447;28;20230;-83
2023/10/15 03:59:01;;;;;;;4.67;1.20;;;;;;;7.54;83.92;100716.09;4984663;28;20211;-83
2023/10/15 04:01:30;;;;;;;3.30;0.90;;;;;;;7.53;83.23;100706.44;4975964;28;20228;-82
2023/10/15 04:04:01;;;;;;;3.23;0.90;;;;;;;7.58;82.02;100709.72;4994502;28;20208;-83
2023/10/15 04:06:27;;;;;;;2.97;1.37;;;;;;;7.59;82.46;100707.94;4986336;28;20200;-83
2023/10/15 04:09:09;;;;;;;1.83;1.10;;;;;;;7.58;82.41;100706.22;5003596;28;20200;-83
2023/10/15 04:11:42;;;;;;;3.40;1.20;;;;;;;7.62;82.31;100705.13;4999151;28;20197;-82
2023/10/15 04:14:13;;;;;;;3.70;1.40;;;;;;;7.60;82.14;100709.66;4979756;28;20200;-83
2023/10/15 04:16:40;;;;;;;3.47;1.37;;;;;;;7.61;83.55;100714.00;4975823;28;20622;-83
2023/10/15 04:19:09;;;;;;;5.13;1.97;;;;;;;7.62;82.88;100716.59;4968599;28;20235;-83
2023/10/15 04:21:38;;;;;;;5.40;1.30;;;;;;;7.61;82.94;100706.06;4985076;28;20296;-82
2023/10/15 04:24:06;;;;;;;4.17;1.37;;;;;;;7.64;83.50;100706.78;4975023;28;20691;-83
2023/10/15 04:26:35;;;;;;;3.53;1.13;;;;;;;7.63;82.82;100707.69;4976490;28;20319;-82
2023/10/15 04:29:15;;;;;;;3.33;0.97;;;;;;;7.63;81.62;100710.34;4978042;28;20212;-83
2023/10/15 04:31:44;;;;;;;2.33;1.13;;;;;;;7.59;81.93;100714.09;4977866;28;20292;-81
2023/10/15 04:34:18;;;;;;;5.53;1.60;;;;;;;7.62;82.04;100705.13;4974777;28;20208;-82
2023/10/15 04:36:45;;;;;;;2.80;1.00;;;;;;;7.62;82.10;100713.94;4968803;28;20211;-83
2023/10/15 04:39:12;;;;;;;3.23;0.80;;;;;;;7.63;82.29;100718.31;4966912;28;20235;-83
2023/10/15 04:41:39;;;;;;;5.27;1.90;;;;;;;7.62;83.16;100713.94;4975015;28;20289;-83
2023/10/15 04:44:11;;;;;;;6.23;1.13;;;;;;;7.64;83.06;100700.59;4982122;28;20220;-82
2023/10/15 04:46:41;;;;;;;2.90;1.30;;;;;;;7.60;82.93;100715.81;4971898;28;20197;-83
2023/10/15 04:49:08;;;;;;;8.50;1.00;;;;;;;7.59;83.19;100708.78;4989131;28;20245;-83
2023/10/15 04:51:42;;;;;;;4.77;0.87;;;;;;;7.59;83.09;100711.44;4965991;28;20209;-83
2023/10/15 04:54:09;;;;;;;3.33;1.10;;;;;;;7.59;82.90;100702.63;4996502;28;20197;-83
2023/10/15 04:56:35;;;;;;;4.33;1.40;;;;;;;7.58;82.74;100704.41;4982975;28;20208;-83
2023/10/15 04:59:03;;;;;;;3.97;1.23;;;;;;;7.54;83.79;100700.19;4967436;28;20589;-83
2023/10/15 05:01:30;;;;;;;4.50;1.07;;;;;;;7.52;83.84;100701.22;4985108;28;20228;-83
2023/10/15 05:03:56;;;;;;;1.77;0.60;;;;;;;7.55;82.96;100698.41;4980784;28;20277;-82
2023/10/15 05:06:24;;;;;;;3.07;0.70;;;;;;;7.54;83.74;100702.84;4984952;28;20584;-83
2023/10/15 05:08:53;;;;;;;1.90;0.70;;;;;;;7.54;83.36;100705.50;4990027;28;20205;-83
2023/10/15 05:11:23;;;;;;;2.20;0.80;;;;;;;7.55;83.39;100703.69;5027928;28;20296;-82
2023/10/15 05:13:49;;;;;;;4.30;0.67;;;;;;;7.52;83.66;100701.22;4985886;28;20210;-83
2023/10/15 05:16:16;;;;;;;2.00;0.60;;;;;;;7.48;83.09;100705.81;4978282;28;20212;-82
2023/10/15 05:18:43;;;;;;;3.30;0.80;;;;;;;7.43;83.72;100707.84;4970606;28;20205;-83
2023/10/15 05:21:13;;;;;;;3.03;0.60;;;;;;;7.43;83.38;100702.53;4993081;28;20260;-83
2023/10/15 05:23:40;;;;;;;1.93;0.73;;;;;;;7.42;83.40;100703.47;4970933;28;20325;-84
2023/10/15 05:26:07;;;;;;;5.87;0.90;;;;;;;7.40;83.58;100707.97;4969850;28;20209;-83
2023/10/15 05:28:34;;;;;;;0.97;0.40;;;;;;;7.39;84.02;100711.56;4978071;28;20213;-83
2023/10/15 05:31:01;;;;;;;2.27;0.67;;;;;;;7.34;83.79;100710.94;5001056;28;20656;-82
2023/10/15 05:33:28;;;;;;;2.97;0.87;;;;;;;7.31;83.50;100721.69;5010957;28;20208;-82
2023/10/15 05:35:56;;;;;;;3.33;0.50;;;;;;;7.29;83.58;100718.25;4976805;28;20213;-83
2023/10/15 05:38:25;;;;;;;1.03;0.77;;;;;;;7.23;83.94;100719.41;4980441;28;20573;-83
2023/10/15 05:40:58;;;;;;;2.50;0.77;;;;;;;7.21;84.18;100718.63;4987527;28;20288;-83
2023/10/15 05:43:26;;;;;;;4.10;0.60;;;;;;;7.22;83.99;100724.78;4974354;28;20266;-83
2023/10/15 05:45:53;;;;;;;1.77;0.57;;;;;;;7.19;84.47;100730.22;4983787;28;20207;-83
2023/10/15 05:48:19;;;;;;;2.33;0.63;;;;;;;7.17;84.60;100732.94;4977191;28;20209;-82
2023/10/15 05:50:50;;;;;;;3.10;1.37;;;;;;;7.16;84.95;100733.03;4971883;28;20231;-82
2023/10/15 05:53:17;;;;;;;2.00;0.80;;;;;;;7.15;84.89;100731.31;4975674;28;20216;-83
2023/10/15 05:55:44;;;;;;;3.80;1.03;;;;;;;7.13;85.35;100730.53;4976562;28;20200;-83
2023/10/15 05:58:10;;;;;;;1.93;0.40;;;;;;;7.14;84.88;100732.25;4979008;28;20729;-83
2023/10/15 06:00:40;;;;;;;2.60;0.60;;;;;;;7.15;85.85;100739.25;4973062;28;20236;-83
2023/10/15 06:03:07;;;;;;;3.40;0.50;;;;;;;7.12;85.92;100734.97;4971833;28;20657;-82
2023/10/15 06:05:34;;;;;;;1.30;0.60;;;;;;;7.10;86.26;100736.81;4969945;28;20759;-83
2023/10/15 06:08:00;;;;;;;2.10;1.33;;;;;;;7.07;85.94;100742.25;4980038;28;20212;-83
2023/10/15 06:10:29;;;;;;;1.80;0.67;;;;;;;7.06;85.69;100740.53;4986945;28;20616;-83
2023/10/15 06:12:56;;;;;;;2.50;0.83;;;;;;;7.08;86.30;100751.91;4985950;28;20216;-83
2023/10/15 06:15:23;;;;;;;3.50;0.87;;;;;;;7.08;86.17;100759.88;4983055;28;20266;-84
2023/10/15 06:17:51;;;;;;;4.30;1.57;;;;;;;7.06;86.88;100758.22;4993322;28;20211;-83
2023/10/15 06:20:17;;;;;;;3.27;0.93;;;;;;;7.07;87.10;100759.94;4975901;28;20647;-83
2023/10/15 06:22:45;;;;;;;2.00;1.20;;;;;;;7.06;87.07;100760.88;4992410;28;20704;-83
2023/10/15 06:25:12;;;;;;;2.43;1.10;;;;;;;7.06;86.92;100764.38;4978297;28;20200;-83
2023/10/15 06:27:39;;;;;;;2.53;1.30;;;;;;;7.07;86.78;100760.78;4973900;28;20212;-82
2023/10/15 06:30:09;;;;;;;1.77;0.80;;;;;;;7.06;86.91;100763.50;4977977;28;20228;-83
2023/10/15 06:32:36;;;;;;;2.23;0.70;;;;;;;7.06;86.89;100760.88;4975299;28;20227;-83
2023/10/15 06:35:05;;;;;;;1.60;0.80;;;;;;;7.06;87.51;100776.75;4972365;28;20741;-83
2023/10/15 06:37:32;;;;;;;2.27;0.70;;;;;;;7.08;87.96;100770.47;4976106;28;20690;-83
2023/10/15 06:39:58;;;;;;;1.80;0.90;;;;;;;7.10;87.21;100779.19;4971729;28;20236;-82
2023/10/15 06:42:25;;;;;;;1.90;0.90;;;;;;;7.12;87.05;100776.47;5013683;28;20225;-83
2023/10/15 06:44:52;;;;;;;1.90;0.80;;;;;;;7.11;87.62;100777.41;4976460;28;20287;-83
2023/10/15 06:47:18;;;;;;;3.20;1.10;;;;;;;7.13;87.30;100775.56;4991603;28;20204;-83
2023/10/15 06:49:45;;;;;;;0.87;0.60;;;;;;;7.16;87.30;100788.66;4992177;28;20283;-83
2023/10/15 06:52:13;;;;;;;1.87;0.50;;;;;;;7.16;87.85;100788.66;4976082;28;20204;-83
2023/10/15 06:54:40;;;;;;;3.33;0.50;;;;;;;7.20;87.42;100800.78;5011812;28;20239;-84
2023/10/15 06:57:07;;;;;;;3.07;0.90;;;;;;;7.22;87.70;100798.94;4977232;28;20209;-83
2023/10/15 06:59:33;;;;;;;1.43;0.60;;;;;;;7.25;88.31;100804.97;4975353;28;20292;-82
2023/10/15 07:02:03;;;;;;;2.73;0.60;;;;;;;7.28;88.63;100796.00;4981450;28;20236;-83
2023/10/15 07:04:30;;;;;;;2.47;0.90;;;;;;;7.34;88.05;100805.47;4974474;28;20250;-84
2023/10/15 07:06:56;;;;;;;2.50;1.00;;;;;;;7.38;87.98;100802.56;4973900;28;20218;-84
2023/10/15 07:09:24;;;;;;;1.73;0.90;;;;;;;7.42;88.81;100806.81;4988684;28;20224;-83
2023/10/15 07:11:50;;;;;;;2.60;1.00;;;;;;;7.45;88.79;100805.81;4968810;28;20315;-83
2023/10/15 07:14:17;;;;;;;1.10;0.70;;;;;;;7.48;88.53;100822.41;4974684;28;20216;-83
2023/10/15 07:16:43;;;;;;;1.87;0.80;;;;;;;7.54;87.73;100819.47;4978177;28;20204;-83
2023/10/15 07:19:10;;;;;;;1.87;1.00;;;;;;;7.55;87.74;100823.81;4983091;28;20212;-82
2023/10/15 07:21:36;;;;;;;2.77;1.10;;;;;;;7.56;87.26;100828.19;4970112;28;20604;-83
2023/10/15 07:24:05;;;;;;;1.83;1.00;;;;;;;7.53;87.24;100828.34;4977054;28;20839;-83
2023/10/15 07:26:33;;;;;;;2.10;0.60;;;;;;;7.58;87.82;100823.69;4965623;28;20208;-83
2023/10/15 07:28:59;;;;;;;2.20;0.90;;;;;;;7.62;87.68;100824.41;4981879;28;20208;-83
2023/10/15 07:31:25;;;;;;;2.40;1.13;;;;;;;7.63;87.66;100832.28;4974368;28;20212;-83
2023/10/15 07:33:53;;;;;;;0.80;0.80;;;;;;;7.70;88.30;100838.16;4972483;28;20201;-83
2023/10/15 07:36:21;;;;;;;2.70;0.70;;;;;;;7.78;88.13;100835.97;4977668;28;20200;-82
2023/10/15 07:38:47;;;;;;;1.90;0.80;;;;;;;7.90;86.77;100834.50;4980257;28;20209;-83
2023/10/15 07:41:14;;;;;;;1.80;0.60;;;;;;;7.96;86.58;100843.03;4989634;28;20237;-83
2023/10/15 07:43:42;;;;;;;2.87;0.87;;;;;;;8.02;85.05;100844.53;4976981;28;20243;-83
2023/10/15 07:46:09;;;;;;;2.30;0.60;;;;;;;8.07;85.07;100831.88;4971485;28;20220;-83
2023/10/15 07:48:36;;;;;;;1.97;0.63;;;;;;;8.12;84.69;100836.97;4976696;28;20212;-83
2023/10/15 07:51:03;;;;;;;2.20;0.70;;;;;;;8.15;84.68;100834.16;4969786;28;20232;-83
2023/10/15 07:53:30;;;;;;;2.10;0.73;;;;;;;8.19;84.00;100841.88;4974059;28;20200;-83
2023/10/15 07:55:56;;;;;;;1.27;0.77;;;;;;;8.25;84.03;100840.69;4970024;28;20204;-83
2023/10/15 07:58:23;;;;;;;3.17;0.80;;;;;;;8.30;83.79;100841.34;4970379;28;20906;-83
2023/10/15 08:00:53;;;;;;;1.37;1.10;;;;;;;8.36;84.25;100838.41;4968642;28;20224;-83
2023/10/15 08:03:19;;;;;;;1.13;0.80;;;;;;;8.44;83.15;100848.63;4974146;28;20224;-83
2023/10/15 08:05:46;;;;;;;1.37;0.67;;;;;;;8.52;81.97;100852.59;4975296;28;20205;-83
2023/10/15 08:08:12;;;;;;;1.80;0.70;;;;;;;8.57;81.68;100857.69;4972711;28;20346;-83
2023/10/15 08:10:39;;;;;;;3.77;0.83;;;;;;;8.63;80.96;100860.00;4972543;28;20313;-83
2023/10/15 08:13:07;;;;;;;0.87;0.50;;;;;;;8.68;79.99;100863.28;4976173;28;20625;-83
2023/10/15 08:15:34;;;;;;;2.53;0.83;;;;;;;8.69;80.25;100859.69;4966119;28;20224;-83
2023/10/15 08:18:02;;;;;;;2.30;0.60;;;;;;;8.76;79.92;100870.88;4976681;28;20244;-83
2023/10/15 08:20:28;;;;;;;3.83;0.80;;;;;;;8.85;80.49;100873.88;4976182;28;20232;-83
2023/10/15 08:22:55;;;;;;;2.97;0.70;;;;;;;8.93;78.95;100869.03;4981606;28;20224;-84
2023/10/15 08:25:22;;;;;;;4.23;0.63;;;;;;;8.99;78.30;100871.34;4971650;28;20679;-83
2023/10/15 08:27:48;;;;;;;3.10;0.93;;;;;;;9.07;78.10;100873.59;4973413;28;20208;-83
2023/10/15 08:30:17;;;;;;;3.00;0.70;;;;;;;9.15;77.54;100875.84;4975345;28;20300;-83
2023/10/15 08:32:46;;;;;;;0.77;0.50;;;;;;;9.21;77.20;100878.19;4972252;28;20807;-83
2023/10/15 08:35:15;;;;;;;1.23;0.70;;;;;;;9.29;76.43;100871.53;5002510;28;20214;-82
2023/10/15 08:37:42;;;;;;;3.80;0.83;;;;;;;9.32;75.99;100873.97;4967046;28;20208;-83
2023/10/15 08:40:15;;;;;;;1.83;0.60;;;;;;;9.43;76.12;100877.88;4971729;28;20268;-84
2023/10/15 08:42:44;;;;;;;1.97;1.37;;;;;;;9.55;75.82;100882.50;4979031;28;20208;-84
2023/10/15 08:45:11;;;;;;;2.03;0.60;;;;;;;9.63;73.53;100888.28;4972541;28;20780;-84
2023/10/15 08:47:39;;;;;;;2.27;1.17;;;;;;;9.69;72.82;100878.13;4968087;28;20578;-83
2023/10/15 08:50:10;;;;;;;2.17;0.73;;;;;;;9.79;74.17;100888.25;4983775;28;20733;-83
2023/10/15 08:52:40;;;;;;;0.97;0.60;;;;;;;9.93;73.95;100885.69;4982383;28;20674;-83
2023/10/15 08:55:09;;;;;;;0.90;0.77;;;;;;;10.09;74.01;100878.53;4972632;28;20203;-83
2023/10/15 08:57:36;;;;;;;2.87;0.90;;;;;;;10.22;72.10;100892.00;4970825;28;20206;-83
2023/10/15 09:00:04;;;;;;;3.17;1.00;;;;;;;10.26;71.70;100888.22;4973043;28;20232;-83
2023/10/15 09:02:31;;;;;;;1.27;0.60;;;;;;;10.28;70.97;100902.31;4978349;28;20229;-84
2023/10/15 09:04:58;;;;;;;2.53;0.90;;;;;;;10.23;70.67;100905.22;4991361;28;20213;-84
2023/10/15 09:07:25;;;;;;;1.63;0.67;;;;;;;10.17;70.43;100907.38;4984611;28;20224;-84
2023/10/15 09:09:53;;;;;;;2.63;0.80;;;;;;;10.08;70.66;100916.72;4982133;28;20704;-83
2023/10/15 09:12:21;;;;;;;1.97;0.80;;;;;;;10.03;71.08;100913.50;4981804;28;20201;-84
2023/10/15 09:14:47;;;;;;;2.17;1.03;;;;;;;9.98;72.39;100921.72;4977125;28;20213;-84
2023/10/15 09:17:15;;;;;;;3.47;1.00;;;;;;;9.94;71.91;100914.84;4971632;28;20281;-83
2023/10/15 09:19:43;;;;;;;1.57;0.80;;;;;;;9.91;71.79;100923.00;4963032;28;20229;-83
2023/10/15 09:22:14;;;;;;;1.53;0.77;;;;;;;9.85;72.32;100925.16;4977162;28;20212;-83
2023/10/15 09:24:41;;;;;;;1.30;0.70;;;;;;;9.82;72.37;100920.03;4974657;28;20230;-84
2023/10/15 09:27:09;;;;;;;1.70;0.60;;;;;;;9.80;73.04;100919.25;4983775;28;20208;-84
2023/10/15 09:29:35;;;;;;;0.97;0.70;;;;;;;9.79;72.50;100921.03;4981565;28;20228;-81
2023/10/15 09:32:04;;;;;;;3.47;0.80;;;;;;;9.79;72.96;100922.84;4973126;28;20210;-84
2023/10/15 09:34:31;;;;;;;1.47;0.50;;;;;;;9.81;73.13;100927.13;4974821;28;20236;-84
2023/10/15 09:36:59;;;;;;;1.27;0.40;;;;;;;9.84;72.77;100928.78;4979151;28;20185;-84
2023/10/15 09:39:27;;;;;;;1.97;0.40;;;;;;;9.87;70.71;100918.78;4993173;28;20876;-83
2023/10/15 09:41:54;;;;;;;3.47;0.50;;;;;;;9.92;70.42;100931.84;4991100;28;20202;-84
2023/10/15 09:44:22;;;;;;;2.17;0.50;;;;;;;9.98;70.86;100932.38;4979036;28;20240;-84
2023/10/15 09:46:49;;;;;;;2.17;0.60;;;;;;;10.06;69.66;100924.78;4982569;28;20216;-84
2023/10/15 09:49:18;;;;;;;1.80;0.40;;;;;;;10.09;69.47;100932.59;4980782;28;20236;-84
2023/10/15 09:51:48;;;;;;;2.93;0.60;;;;;;;10.14;68.63;100929.69;4976410;28;20269;-84
2023/10/15 09:54:19;;;;;;;3.70;1.07;;;;;;;10.16;67.77;100932.28;4979861;28;20212;-83
2023/10/15 09:56:46;;;;;;;2.10;0.77;;;;;;;10.16;68.00;100943.78;4972267;28;20205;-83
2023/10/15 09:59:14;;;;;;;1.47;0.50;;;;;;;10.17;69.19;100940.19;4996708;28;20215;-83
2023/10/15 10:01:46;;;;;;;2.67;0.60;;;;;;;10.16;68.02;100941.13;4966979;28;20212;-83
2023/10/15 10:04:40;;;;;;;1.73;0.50;;;;;;;10.13;68.01;100951.94;4987443;28;20312;-80
2023/10/15 10:07:28;;;;;;;1.57;0.37;;;;;;;10.08;67.84;100953.97;4983016;28;20255;-80
2023/10/15 10:10:17;;;;;;;2.73;0.60;;;;;;;10.06;69.20;100956.72;4974024;28;20228;-80
2023/10/15 10:13:04;;;;;;;2.23;0.70;;;;;;;10.08;69.20;100965.50;4979754;28;20201;-79
2023/10/15 10:15:41;;;;;;;1.20;0.50;;;;;;;10.03;68.25;100962.22;4984292;28;20215;-80
2023/10/15 10:18:10;;;;;;;0.60;0.40;;;;;;;10.01;69.00;100958.81;4979104;28;20219;-79
2023/10/15 10:20:38;;;;;;;2.07;0.73;;;;;;;10.04;69.20;100955.09;4978712;28;20248;-80
2023/10/15 10:23:06;;;;;;;1.63;0.40;;;;;;;10.01;68.36;100963.28;4974733;28;20239;-79
2023/10/15 10:25:39;;;;;;;0.97;0.50;;;;;;;10.02;68.32;100965.84;4975984;28;20220;-80
2023/10/15 10:28:08;;;;;;;1.37;0.57;;;;;;;10.03;68.33;100959.56;4969903;28;20204;-80
2023/10/15 10:30:34;;;;;;;1.00;0.40;;;;;;;10.08;68.28;100964.63;4978529;28;20860;-80
2023/10/15 10:33:03;;;;;;;3.27;0.80;;;;;;;10.10;68.37;100976.06;4975742;28;20196;-81
2023/10/15 10:35:41;;;;;;;2.43;1.07;;;;;;;10.12;68.07;100974.16;4976589;28;20669;-80
2023/10/15 10:38:10;;;;;;;2.37;0.60;;;;;;;10.15;67.28;100968.69;4974824;28;20291;-79
2023/10/15 10:40:47;;;;;;;1.93;0.40;;;;;;;10.18;67.10;100971.16;4972327;28;20262;-80
2023/10/15 10:43:24;;;;;;;2.13;0.60;;;;;;;10.18;67.48;100979.16;4984089;28;20232;-81
2023/10/15 10:45:53;;;;;;;3.03;0.50;;;;;;;10.17;66.48;100985.41;4971215;28;20303;-80
2023/10/15 10:48:23;;;;;;;1.47;0.40;;;;;;;10.16;65.46;100983.69;4978527;28;20214;-82
2023/10/15 10:51:12;;;;;;;1.67;0.57;;;;;;;10.14;65.04;100979.41;4971050;28;20642;-82
2023/10/15 10:53:39;;;;;;;1.57;0.57;;;;;;;10.10;65.20;100984.91;4990452;28;20212;-83
2023/10/15 10:56:08;;;;;;;5.63;0.80;;;;;;;10.08;65.19;100977.94;4983858;28;20295;-81
2023/10/15 10:58:37;;;;;;;2.80;0.70;;;;;;;10.09;65.10;100977.84;4977719;28;20218;-82
2023/10/15 11:01:06;;;;;;;0.90;0.40;;;;;;;10.08;64.28;100975.28;4972114;28;20240;-82
2023/10/15 11:03:33;;;;;;;2.13;0.43;;;;;;;10.03;64.54;100975.53;4971209;28;20228;-81
2023/10/15 11:06:01;;;;;;;0.50;0.30;;;;;;;10.07;65.18;100971.75;4993091;28;20215;-81
2023/10/15 11:08:27;;;;;;;2.93;0.60;;;;;;;10.08;65.21;100964.63;4978773;28;20657;-81
2023/10/15 11:10:54;;;;;;;1.80;0.50;;;;;;;10.05;65.52;100965.66;4967830;28;20887;-82
2023/10/15 11:13:22;;;;;;;0.97;0.43;;;;;;;10.03;65.21;100972.88;4977091;28;20223;-80
2023/10/15 11:15:50;;;;;;;1.90;0.50;;;;;;;10.00;65.96;100969.53;4979321;28;20218;-81
2023/10/15 11:18:25;;;;;;;1.70;0.30;;;;;;;9.97;65.96;100980.34;4975301;28;22359;-81
2023/10/15 11:21:00;;;;;;;2.50;0.50;;;;;;;9.93;65.56;100982.31;4982781;28;20660;-81
2023/10/15 11:23:29;;;;;;;2.73;0.53;;;;;;;9.93;65.83;100979.66;4975789;28;20231;-82
2023/10/15 11:25:57;;;;;;;3.40;1.00;;;;;;;9.95;66.40;100990.22;4972245;28;20292;-81
2023/10/15 11:28:24;;;;;;;3.60;0.47;;;;;;;10.00;67.04;100988.16;4971660;28;20208;-82
2023/10/15 11:30:53;;;;;;;2.13;0.43;;;;;;;10.04;66.75;100993.22;4980169;28;20235;-82
2023/10/15 11:33:20;;;;;;;2.23;0.50;;;;;;;10.08;66.35;100997.44;4975075;28;20201;-83
2023/10/15 11:35:48;;;;;;;0.87;0.40;;;;;;;10.14;66.38;100990.91;4974219;28;20205;-82
2023/10/15 11:38:15;;;;;;;1.20;0.33;;;;;;;10.21;66.36;100986.97;4974668;28;20212;-84
2023/10/15 11:40:45;;;;;;;0.77;0.50;;;;;;;10.27;65.03;100972.47;4980820;28;20225;-80
2023/10/15 11:43:17;;;;;;;3.33;1.23;;;;;;;10.34;63.90;100982.69;4974295;28;20228;-81